createdAt,value
2022-08-07T00:03:05.584Z,102535.97
2022-08-07T00:08:15.526Z,102543.00
2022-08-07T00:13:25.846Z,102555.61
2022-08-07T00:18:34.600Z,102568.06
2022-08-07T00:23:44.513Z,102572.79
2022-08-07T00:28:55.444Z,102576.48
2022-08-07T00:34:08.460Z,102576.47
2022-08-07T00:39:17.306Z,102582.44
2022-08-07T00:44:28.228Z,102586.64
2022-08-07T00:50:19.950Z,102588.75
2022-08-07T00:55:04.997Z,102582.42
2022-08-07T01:00:21.000Z,102574.33
2022-08-07T01:05:30.918Z,102573.23
2022-08-07T01:10:47.619Z,102569.15
2022-08-07T01:16:05.878Z,102572.80
2022-08-07T01:21:22.521Z,102576.56
2022-08-07T01:26:32.504Z,102584.73
2022-08-07T01:31:41.742Z,102585.17
2022-08-07T01:36:57.909Z,102577.42
2022-08-07T01:42:38.057Z,102582.80
2022-08-07T01:48:19.572Z,102583.82
2022-08-07T01:53:08.958Z,102579.57
2022-08-07T01:58:29.303Z,102577.44
2022-08-07T02:03:50.193Z,102577.91
2022-08-07T02:09:01.495Z,102575.39
2022-08-07T02:14:36.620Z,102574.98
2022-08-07T02:20:06.941Z,102572.13
2022-08-07T02:25:18.133Z,102563.29
2022-08-07T02:30:34.904Z,102561.10
2022-08-07T02:36:28.645Z,102557.35
2022-08-07T02:41:14.067Z,102554.10
2022-08-07T02:46:31.549Z,102549.29
2022-08-07T02:51:42.537Z,102543.11
2022-08-07T02:57:03.109Z,102547.54
2022-08-07T03:02:15.576Z,102541.34
2022-08-07T03:07:42.949Z,102544.21
2022-08-07T03:12:52.003Z,102539.73
2022-08-07T03:18:00.967Z,102532.64
2022-08-07T03:23:14.392Z,102518.86
2022-08-07T03:28:36.945Z,102513.84
2022-08-07T03:33:48.739Z,102505.86
2022-08-07T03:39:05.261Z,-1.00
2022-08-07T03:44:13.408Z,-1.00
2022-08-07T03:49:23.948Z,-1.00
2022-08-07T03:54:36.021Z,-1.00
2022-08-07T04:00:01.637Z,-1.00
2022-08-07T04:05:11.898Z,-1.00
2022-08-07T04:10:21.186Z,-1.00
2022-08-07T04:15:32.091Z,-1.00
2022-08-07T04:20:39.383Z,-1.00
2022-08-07T04:26:02.350Z,-1.00
2022-08-07T04:31:20.053Z,-1.00
2022-08-07T04:36:27.891Z,-1.00
2022-08-07T04:41:37.571Z,-1.00
2022-08-07T04:47:04.980Z,-1.00
2022-08-07T04:52:30.562Z,-1.00
2022-08-07T04:58:32.132Z,-1.00
2022-08-07T05:04:01.145Z,-1.00
2022-08-07T05:09:01.352Z,-1.00
2022-08-07T05:14:55.367Z,-1.00
2022-08-07T05:19:48.719Z,-1.00
2022-08-07T05:24:59.576Z,-1.00
2022-08-07T05:30:09.220Z,-1.00
2022-08-07T05:35:23.797Z,-1.00
2022-08-07T05:40:51.551Z,-1.00
2022-08-07T05:46:02.333Z,-1.00
2022-08-07T05:51:11.068Z,-1.00
2022-08-07T05:56:20.252Z,-1.00
2022-08-07T06:01:39.509Z,-1.00
2022-08-07T06:06:47.611Z,-1.00
2022-08-07T06:12:04.026Z,-1.00
2022-08-07T06:17:14.304Z,-1.00
2022-08-07T06:22:24.124Z,-1.00
2022-08-07T06:28:01.291Z,-1.00
2022-08-07T06:33:16.334Z,-1.00
2022-08-07T06:38:25.885Z,-1.00
2022-08-07T06:43:40.192Z,-1.00
2022-08-07T06:48:58.201Z,-1.00
2022-08-07T06:55:53.803Z,103259.40
2022-08-07T07:00:58.465Z,103192.45
2022-08-07T07:06:11.329Z,103177.90
2022-08-07T07:12:09.881Z,103173.23
2022-08-07T07:16:50.836Z,103179.62
2022-08-07T07:22:05.262Z,103173.10
2022-08-07T07:27:22.511Z,103167.48
2022-08-07T07:32:31.932Z,103154.13
2022-08-07T07:37:49.720Z,103157.02
2022-08-07T07:43:15.494Z,103160.44
2022-08-07T07:48:35.851Z,103163.83
2022-08-07T07:53:52.198Z,103167.69
2022-08-07T07:59:02.826Z,103168.84
2022-08-07T08:04:12.082Z,103103.70
2022-08-07T08:09:22.965Z,103125.45
2022-08-07T08:14:29.997Z,103114.39
2022-08-07T08:20:18.222Z,50988.64
2022-08-07T08:25:41.943Z,-1.00
2022-08-07T08:30:55.658Z,-1.00
2022-08-07T08:36:03.838Z,-1.00
2022-08-07T08:41:19.815Z,-1.00
2022-08-07T08:46:38.567Z,-1.00
2022-08-07T08:52:14.495Z,-1.00
2022-08-07T08:57:34.749Z,-1.00
2022-08-07T09:02:52.555Z,-1.00
2022-08-07T09:08:06.161Z,-1.00
2022-08-07T09:13:37.038Z,-1.00
2022-08-07T09:19:07.254Z,-1.00
2022-08-07T09:25:00.546Z,-1.00
2022-08-07T09:30:17.413Z,-1.00
2022-08-07T09:36:05.339Z,-1.00
2022-08-07T09:41:16.034Z,-1.00
2022-08-07T09:47:50.261Z,-1.00
2022-08-07T09:52:09.746Z,-1.00
2022-08-07T09:57:46.683Z,-1.00
2022-08-07T10:04:05.660Z,-1.00
2022-08-07T10:10:00.904Z,-1.00
2022-08-07T10:15:26.999Z,-1.00
2022-08-07T10:20:45.535Z,-1.00
2022-08-07T10:26:08.605Z,-1.00
2022-08-07T10:31:39.428Z,-1.00
2022-08-07T10:36:58.442Z,-1.00
2022-08-07T10:42:20.973Z,-1.00
2022-08-07T10:47:53.869Z,-1.00
2022-08-07T10:53:11.548Z,-1.00
2022-08-07T10:58:41.606Z,-1.00
2022-08-07T11:04:23.304Z,-1.00
2022-08-07T11:10:09.538Z,-1.00
2022-08-07T11:15:14.695Z,-1.00
2022-08-07T11:20:28.091Z,-1.00
2022-08-07T11:25:42.476Z,-1.00
2022-08-07T11:31:03.911Z,-1.00
2022-08-07T11:36:30.790Z,-1.00
2022-08-07T11:42:02.468Z,-1.00
2022-08-07T11:47:38.690Z,-1.00
2022-08-07T11:56:08.677Z,-1.00
2022-08-07T12:01:59.159Z,-1.00
2022-08-07T12:07:26.984Z,-1.00
2022-08-07T12:12:41.819Z,102725.27
2022-08-07T12:17:58.617Z,102823.85
2022-08-07T12:24:05.561Z,102863.01
2022-08-07T12:29:04.688Z,102849.05
2022-08-07T12:34:14.292Z,102744.55
2022-08-07T12:39:43.933Z,102621.64
2022-08-07T12:44:54.739Z,102631.10
2022-08-07T12:50:34.469Z,102685.72
2022-08-07T12:56:03.113Z,102485.33
2022-08-07T13:01:32.112Z,102545.11
2022-08-07T13:07:00.992Z,102632.64
2022-08-07T13:12:18.503Z,102571.52
2022-08-07T13:17:39.820Z,102565.36
2022-08-07T13:22:56.498Z,102499.23
2022-08-07T13:28:13.735Z,102395.75
2022-08-07T13:34:30.524Z,102423.96
2022-08-07T13:39:13.110Z,102400.56
2022-08-07T13:44:38.882Z,102313.18
2022-08-07T13:50:34.182Z,102369.70
2022-08-07T13:55:26.335Z,102376.84
2022-08-07T14:00:50.645Z,102322.02
2022-08-07T14:06:02.897Z,102327.63
2022-08-07T14:11:15.266Z,102291.17
2022-08-07T14:16:41.348Z,102283.70
2022-08-07T14:22:41.268Z,102306.05
2022-08-07T14:28:10.918Z,102300.92
2022-08-07T14:33:05.790Z,102281.95
2022-08-07T14:38:26.467Z,102266.24
2022-08-07T14:43:58.385Z,102241.25
2022-08-07T14:49:17.417Z,102260.84
2022-08-07T14:54:43.319Z,102264.96
2022-08-07T15:10:58.680Z,102146.50
2022-08-07T15:16:14.667Z,102172.70
2022-08-07T15:27:01.169Z,102130.27
2022-08-07T15:43:33.182Z,102089.30
2022-08-07T15:49:11.907Z,102112.06
2022-08-07T15:54:16.538Z,102105.46
2022-08-07T15:59:39.941Z,102082.36
2022-08-07T16:04:55.997Z,102018.71
2022-08-07T16:10:15.050Z,102070.33
2022-08-07T16:15:54.945Z,102056.20
2022-08-07T16:22:02.278Z,102011.79
2022-08-07T16:26:58.720Z,102018.56
2022-08-07T16:32:33.209Z,101979.26
2022-08-07T16:38:11.502Z,101961.02
2022-08-07T16:44:05.843Z,101949.24
2022-08-07T16:50:26.772Z,101947.67
2022-08-07T16:55:14.883Z,101964.24
2022-08-07T17:00:29.918Z,101958.62
2022-08-07T17:06:19.276Z,101948.40
2022-08-07T17:12:04.403Z,101952.68
2022-08-07T17:17:05.838Z,101907.42
2022-08-07T17:22:17.984Z,101899.62
2022-08-07T17:27:50.990Z,101902.48
2022-08-07T17:34:10.351Z,101891.95
2022-08-07T17:38:56.149Z,101872.92
2022-08-07T17:44:14.232Z,101867.96
2022-08-07T17:49:24.463Z,101852.84
2022-08-07T17:54:54.589Z,101850.45
2022-08-07T18:00:06.729Z,101861.40
2022-08-07T18:06:03.177Z,101852.77
2022-08-07T18:12:17.461Z,101855.13
2022-08-07T18:16:57.501Z,101845.86
2022-08-07T18:22:16.971Z,101813.98
2022-08-07T18:28:00.493Z,101792.41
2022-08-07T18:33:55.083Z,101839.56
2022-08-07T18:40:07.535Z,101851.16
2022-08-07T18:45:43.956Z,101849.20
2022-08-07T18:51:06.103Z,61108.70
2022-08-07T18:56:31.711Z,-1.00
2022-08-07T19:02:18.575Z,-1.00
2022-08-07T19:07:34.428Z,-1.00
2022-08-07T19:12:59.508Z,-1.00
2022-08-07T19:18:34.700Z,-1.00
2022-08-07T19:23:57.900Z,-1.00
2022-08-07T19:31:04.458Z,-1.00
2022-08-07T19:34:51.402Z,-1.00
2022-08-07T19:40:03.526Z,-1.00
2022-08-07T19:46:05.716Z,-1.00
2022-08-07T19:50:49.827Z,-1.00
2022-08-07T19:56:02.982Z,-1.00
2022-08-07T20:01:11.339Z,-1.00
2022-08-07T20:06:30.344Z,-1.00
2022-08-07T20:12:22.597Z,-1.00
2022-08-07T20:17:13.864Z,-1.00
2022-08-07T20:22:33.822Z,-1.00
2022-08-07T20:27:47.718Z,-1.00
2022-08-07T20:33:02.692Z,-1.00
2022-08-07T20:38:12.560Z,-1.00
2022-08-07T20:43:25.186Z,-1.00
2022-08-07T20:48:37.206Z,-1.00
2022-08-07T20:54:02.095Z,-1.00
2022-08-07T21:00:04.579Z,-1.00
2022-08-07T21:04:45.867Z,-1.00
2022-08-07T21:09:59.170Z,-1.00
2022-08-07T21:15:12.177Z,-1.00
2022-08-07T21:20:33.319Z,-1.00
2022-08-07T21:25:56.338Z,-1.00
2022-08-07T21:31:12.293Z,-1.00
2022-08-07T21:37:31.637Z,101916.16
2022-08-07T21:43:00.667Z,101849.16
2022-08-07T21:48:27.662Z,81483.77
2022-08-07T21:53:46.614Z,-1.00
2022-08-07T21:59:05.348Z,-1.00
2022-08-07T22:04:20.360Z,-1.00
2022-08-07T22:09:37.990Z,-1.00
2022-08-07T22:15:03.623Z,101833.41
2022-08-07T22:20:41.146Z,101876.00
2022-08-07T22:25:58.059Z,101880.87
2022-08-07T22:31:45.622Z,101892.19
2022-08-07T22:37:09.639Z,101912.95
2022-08-07T22:42:29.521Z,101964.36
2022-08-07T22:48:31.687Z,102026.41
2022-08-07T22:54:05.480Z,102085.11
2022-08-07T22:59:44.736Z,102095.80
2022-08-07T23:06:06.760Z,102105.80
2022-08-07T23:10:58.196Z,102127.67
2022-08-07T23:16:46.400Z,102141.17
2022-08-07T23:21:50.697Z,102150.80
2022-08-07T23:27:33.932Z,102164.09
2022-08-07T23:34:35.103Z,102177.55
2022-08-07T23:38:43.979Z,102194.34
2022-08-07T23:44:24.689Z,102219.51
2022-08-07T23:50:00.203Z,102220.71
2022-08-07T23:55:52.354Z,102242.21
